ETS weather

Enterprise Municipal Airport
Enterprise, Alabama, United States

Public forecast

Using degrees Fahrenheit for public forecast. Weather courtesy of forecast.io.

METAR (pilot weather report)

Retrieved 2019/05/27 13:35 UTC (0 seconds ago):

KEDN 271335Z AUTO 00000KT 10SM CLR 27/21 A3010 RMK AO2 T02740213

TAF (pilot weather forecast)

Closest forecast is Cairns AAF (Fort Rucker) Air Field, 9.7 nm (17.9 km) E. Retrieved 2019/05/27 08:12 UTC (5 hours ago):

TAF KOZR 270800Z 2708/2814 VRB06KT 9999 SCT060 QNH3003INS TEMPO 2709/2712 8000 BR BECMG 2715/2716 24009KT 9999 FEW050 QNH3007INS TX37/2721Z TN22/2711Z